createdAt,value
2023-05-05T00:00:06.207Z,1019.81
2023-05-05T00:00:37.642Z,1019.81
2023-05-05T00:01:08.817Z,1019.91
2023-05-05T00:01:41.722Z,1019.91
2023-05-05T00:02:12.865Z,1019.91
2023-05-05T00:02:45.871Z,1019.91
2023-05-05T00:03:16.992Z,1019.81
2023-05-05T00:03:49.673Z,1019.81
2023-05-05T00:04:20.865Z,1019.81
2023-05-05T00:04:53.613Z,1019.81
2023-05-05T00:05:25.111Z,1019.74
2023-05-05T00:05:57.821Z,1019.81
2023-05-05T00:06:28.817Z,1019.81
2023-05-05T00:07:01.592Z,1019.81
2023-05-05T00:07:32.800Z,1019.81
2023-05-05T00:08:05.701Z,1019.74
2023-05-05T00:08:36.788Z,1019.74
2023-05-05T00:09:09.430Z,1019.74
2023-05-05T00:09:40.760Z,1019.74
2023-05-05T00:10:13.932Z,1019.74
2023-05-05T00:10:45.005Z,1019.74
2023-05-05T00:11:17.661Z,1019.74
2023-05-05T00:11:48.805Z,1019.74
2023-05-05T00:12:21.709Z,1019.81
2023-05-05T00:12:52.932Z,1019.81
2023-05-05T00:13:25.496Z,1019.81
2023-05-05T00:13:56.863Z,1019.91
2023-05-05T00:14:29.661Z,1019.91
2023-05-05T00:15:02.189Z,1019.91
2023-05-05T00:15:33.653Z,1019.91
2023-05-05T00:16:04.988Z,1019.91
2023-05-05T00:16:37.745Z,1019.91
2023-05-05T00:17:08.800Z,1019.81
2023-05-05T00:17:41.826Z,1019.81
2023-05-05T00:18:12.716Z,1019.74
2023-05-05T00:18:45.394Z,1019.74
2023-05-05T00:19:16.861Z,1019.81
2023-05-05T00:19:49.721Z,1019.81
2023-05-05T00:20:21.102Z,1019.64
2023-05-05T00:20:53.507Z,1019.64
2023-05-05T00:21:24.916Z,1019.81
2023-05-05T00:21:57.415Z,1019.91
2023-05-05T00:22:28.837Z,1019.91
2023-05-05T00:23:01.754Z,1019.64
2023-05-05T00:23:32.975Z,1019.64
2023-05-05T00:24:05.425Z,1019.91
2023-05-05T00:24:36.737Z,1019.91
2023-05-05T00:25:09.895Z,1019.74
2023-05-05T00:25:40.742Z,1019.74
2023-05-05T00:26:13.552Z,1019.91
2023-05-05T00:26:44.915Z,1019.91
2023-05-05T00:27:17.713Z,1019.64
2023-05-05T00:27:48.706Z,1019.64
2023-05-05T00:28:21.594Z,1019.74
2023-05-05T00:28:52.895Z,1019.74
2023-05-05T00:29:25.640Z,1019.81
2023-05-05T00:29:56.841Z,1019.81
2023-05-05T00:30:30.883Z,1019.81
2023-05-05T00:31:00.808Z,1019.74
2023-05-05T00:31:33.817Z,1019.74
2023-05-05T00:32:04.903Z,1019.74
2023-05-05T00:32:37.818Z,1019.74
2023-05-05T00:33:08.749Z,1019.81
2023-05-05T00:33:41.719Z,1019.81
2023-05-05T00:34:12.947Z,1019.74
2023-05-05T00:34:46.828Z,1019.74
2023-05-05T00:35:16.999Z,1019.74
2023-05-05T00:35:49.743Z,1019.74
2023-05-05T00:36:20.866Z,1019.81
2023-05-05T00:36:53.670Z,1019.81
2023-05-05T00:37:24.790Z,1019.74
2023-05-05T00:37:57.734Z,1019.74
2023-05-05T00:38:28.761Z,1019.74
2023-05-05T00:39:01.550Z,1019.74
2023-05-05T00:39:32.864Z,1019.74
2023-05-05T00:40:06.008Z,1019.81
2023-05-05T00:40:36.826Z,1019.81
2023-05-05T00:41:09.651Z,1019.81
2023-05-05T00:41:40.866Z,1019.81
2023-05-05T00:42:13.661Z,1019.64
2023-05-05T00:42:44.756Z,1019.64
2023-05-05T00:43:17.781Z,1019.44
2023-05-05T00:43:48.889Z,1019.44
2023-05-05T00:44:21.579Z,1019.74
2023-05-05T00:44:52.852Z,1019.74
2023-05-05T00:45:26.868Z,1019.64
2023-05-05T00:45:56.849Z,1019.74
2023-05-05T00:46:29.836Z,1019.74
2023-05-05T00:47:00.985Z,1019.64
2023-05-05T00:47:33.881Z,1019.64
2023-05-05T00:48:04.852Z,1019.74
2023-05-05T00:48:37.665Z,1019.74
2023-05-05T00:49:08.951Z,1019.64
2023-05-05T00:49:41.903Z,1019.64
2023-05-05T00:50:13.056Z,1019.74
2023-05-05T00:50:45.751Z,1019.74
2023-05-05T00:51:16.871Z,1019.54
2023-05-05T00:51:49.750Z,1019.54
2023-05-05T00:52:20.821Z,1019.64
2023-05-05T00:52:53.933Z,1019.64
2023-05-05T00:53:24.740Z,1019.54
2023-05-05T00:53:57.550Z,1019.54
2023-05-05T00:54:28.877Z,1019.54
2023-05-05T00:55:02.276Z,1019.64
2023-05-05T00:55:32.768Z,1019.64
2023-05-05T00:56:05.768Z,1019.54
2023-05-05T00:56:37.000Z,1019.54
2023-05-05T00:57:09.732Z,1019.54
2023-05-05T00:57:40.749Z,1019.54
2023-05-05T00:58:13.824Z,1019.44
2023-05-05T00:58:44.916Z,1019.44
2023-05-05T00:59:17.749Z,1019.64
2023-05-05T00:59:48.791Z,1019.64
2023-05-05T01:00:23.660Z,1019.44
2023-05-05T01:00:53.024Z,1019.44
2023-05-05T01:01:25.726Z,1019.44
2023-05-05T01:01:57.082Z,1019.64
2023-05-05T01:02:29.921Z,1019.64
2023-05-05T01:03:01.055Z,1019.44
2023-05-05T01:03:33.795Z,1019.44
2023-05-05T01:04:04.845Z,1019.44
2023-05-05T01:04:37.804Z,1019.44
2023-05-05T01:05:09.159Z,1019.44
2023-05-05T01:05:41.833Z,1019.44
2023-05-05T01:06:12.773Z,1019.54
2023-05-05T01:06:45.540Z,1019.54
2023-05-05T01:07:16.825Z,1019.64
2023-05-05T01:07:49.652Z,1019.64
2023-05-05T01:08:20.798Z,1019.44
2023-05-05T01:08:53.635Z,1019.44
2023-05-05T01:09:24.910Z,1019.34
2023-05-05T01:10:07.572Z,1019.44
2023-05-05T01:10:29.198Z,1019.44
2023-05-05T01:11:01.799Z,1019.54
2023-05-05T01:11:32.899Z,1019.54
2023-05-05T01:12:05.718Z,1019.44
2023-05-05T01:12:36.838Z,1019.44
2023-05-05T01:13:09.824Z,1019.23
2023-05-05T01:13:40.829Z,1019.23
2023-05-05T01:14:13.971Z,1019.54
2023-05-05T01:14:44.987Z,1019.54
2023-05-05T01:15:18.549Z,1019.54
2023-05-05T01:15:49.040Z,1019.54
2023-05-05T01:16:22.192Z,1019.23
2023-05-05T01:16:52.828Z,1019.23
2023-05-05T01:17:25.794Z,1019.44
2023-05-05T01:17:56.782Z,1019.34
2023-05-05T01:18:29.876Z,1019.34
2023-05-05T01:19:00.772Z,1019.34
2023-05-05T01:19:33.772Z,1019.34
2023-05-05T01:20:05.033Z,1019.44
2023-05-05T01:20:37.774Z,1019.44
2023-05-05T01:21:08.886Z,1019.54
2023-05-05T01:21:41.847Z,1019.54
2023-05-05T01:22:12.989Z,1019.44
2023-05-05T01:22:45.514Z,1019.44
2023-05-05T01:23:16.949Z,1019.44
2023-05-05T01:23:49.759Z,1019.44
2023-05-05T01:24:20.789Z,1019.44
2023-05-05T01:24:53.675Z,1019.44
2023-05-05T01:25:25.213Z,1019.34
2023-05-05T01:25:57.638Z,1019.34
2023-05-05T01:26:28.744Z,1019.34
2023-05-05T01:27:02.073Z,1019.34
2023-05-05T01:27:32.927Z,1019.34
2023-05-05T01:28:05.664Z,1019.44
2023-05-05T01:28:36.825Z,1019.44
2023-05-05T01:29:09.659Z,1019.34
2023-05-05T01:29:40.801Z,1019.34
2023-05-05T01:30:15.138Z,1019.23
2023-05-05T01:30:45.024Z,1019.23
2023-05-05T01:31:17.677Z,1019.54
2023-05-05T01:31:48.703Z,1019.54
2023-05-05T01:32:21.758Z,1019.44
2023-05-05T01:32:53.098Z,1019.44
2023-05-05T01:33:25.548Z,1019.34
2023-05-05T01:33:56.864Z,1019.44
2023-05-05T01:34:29.673Z,1019.44
2023-05-05T01:35:01.209Z,1019.44
2023-05-05T01:35:33.627Z,1019.44
2023-05-05T01:36:04.890Z,1019.23
2023-05-05T01:36:37.835Z,1019.23
2023-05-05T01:37:08.745Z,1019.54
2023-05-05T01:37:41.670Z,1019.54
2023-05-05T01:38:12.773Z,1019.44
2023-05-05T01:38:45.526Z,1019.44
2023-05-05T01:39:16.764Z,1019.44
2023-05-05T01:39:49.522Z,1019.44
2023-05-05T01:40:21.226Z,1019.44
2023-05-05T01:40:53.697Z,1019.44
2023-05-05T01:41:24.878Z,1019.44
2023-05-05T01:41:57.647Z,1019.44
2023-05-05T01:42:28.725Z,1019.44
2023-05-05T01:43:01.831Z,1019.34
2023-05-05T01:43:32.928Z,1019.34
2023-05-05T01:44:05.799Z,1019.34
2023-05-05T01:44:36.822Z,1019.34
2023-05-05T01:45:10.927Z,1019.03
2023-05-05T01:45:41.119Z,1019.03
2023-05-05T01:46:13.738Z,1019.54
2023-05-05T01:46:44.813Z,1019.54
2023-05-05T01:47:17.665Z,1019.34
2023-05-05T01:47:48.799Z,1019.34
2023-05-05T01:48:21.850Z,1019.34
2023-05-05T01:48:52.875Z,1019.34
2023-05-05T01:49:25.564Z,1019.34
2023-05-05T01:49:56.712Z,1019.54
2023-05-05T01:50:13.284Z,1019.54
2023-05-05T01:50:44.668Z,1019.54
2023-05-05T01:51:16.977Z,1019.44
2023-05-05T01:51:48.875Z,1019.44
2023-05-05T01:52:20.987Z,1019.23
2023-05-05T01:52:52.835Z,1019.23
2023-05-05T01:53:24.886Z,1019.34
2023-05-05T01:53:56.811Z,1019.34
2023-05-05T01:54:28.749Z,1019.34
2023-05-05T01:55:02.021Z,1019.34
2023-05-05T01:55:32.938Z,1019.34
2023-05-05T01:56:05.792Z,1019.34
2023-05-05T01:56:36.963Z,1019.34
2023-05-05T01:57:09.721Z,1019.13
2023-05-05T01:57:40.998Z,1019.13
2023-05-05T01:58:13.763Z,1019.44
2023-05-05T01:58:44.857Z,1019.44
2023-05-05T01:59:17.883Z,1019.54
2023-05-05T01:59:48.854Z,1019.54
2023-05-05T02:00:23.264Z,1019.34
2023-05-05T02:00:53.100Z,1019.34
2023-05-05T02:01:25.611Z,1019.54
2023-05-05T02:01:56.937Z,1019.54
2023-05-05T02:02:30.101Z,1019.54
2023-05-05T02:03:01.238Z,1019.34
2023-05-05T02:03:33.888Z,1019.34
2023-05-05T02:04:04.977Z,1019.44
2023-05-05T02:04:39.115Z,1019.44
2023-05-05T02:05:09.182Z,1019.54
2023-05-05T02:05:41.655Z,1019.54
2023-05-05T02:06:12.890Z,1019.54
2023-05-05T02:06:46.109Z,1019.54
2023-05-05T02:07:16.874Z,1019.34
2023-05-05T02:07:50.004Z,1019.34
2023-05-05T02:08:21.081Z,1019.54
2023-05-05T02:08:54.039Z,1019.54
2023-05-05T02:09:25.064Z,1019.44
2023-05-05T02:09:57.787Z,1019.54
2023-05-05T02:10:29.536Z,1019.54
2023-05-05T02:11:02.114Z,1019.64
2023-05-05T02:11:32.974Z,1019.64
2023-05-05T02:12:06.111Z,1019.54
2023-05-05T02:12:37.235Z,1019.54
2023-05-05T02:13:10.059Z,1019.54
2023-05-05T02:13:41.153Z,1019.54
2023-05-05T02:14:13.819Z,1019.34
2023-05-05T02:14:44.848Z,1019.34
2023-05-05T02:15:18.696Z,1019.54
2023-05-05T02:15:49.153Z,1019.54
2023-05-05T02:16:21.977Z,1019.44
2023-05-05T02:16:52.914Z,1019.44
2023-05-05T02:17:25.806Z,1019.74
2023-05-05T02:17:57.075Z,1019.23
2023-05-05T02:18:29.827Z,1019.23
2023-05-05T02:19:00.995Z,1019.54
2023-05-05T02:19:33.765Z,1019.54
2023-05-05T02:20:05.362Z,1019.54
2023-05-05T02:20:37.999Z,1019.54
2023-05-05T02:21:08.987Z,1019.54
2023-05-05T02:21:41.970Z,1019.54
2023-05-05T02:22:12.897Z,1019.44
2023-05-05T02:22:45.729Z,1019.44
2023-05-05T02:23:16.988Z,1019.34
2023-05-05T02:23:49.943Z,1019.34
2023-05-05T02:24:20.868Z,1019.54
2023-05-05T02:24:53.948Z,1019.54
2023-05-05T02:25:25.225Z,1019.44
2023-05-05T02:25:57.564Z,1019.34
2023-05-05T02:26:28.925Z,1019.34
2023-05-05T02:27:01.959Z,1019.54
2023-05-05T02:27:32.817Z,1019.54
2023-05-05T02:28:05.809Z,1019.54
2023-05-05T02:28:37.047Z,1019.54
2023-05-05T02:29:09.692Z,1019.44
2023-05-05T02:29:40.792Z,1019.44
2023-05-05T02:30:14.898Z,1019.44
2023-05-05T02:30:45.063Z,1019.44
2023-05-05T02:31:17.771Z,1019.23
2023-05-05T02:31:49.010Z,1019.23
2023-05-05T02:32:21.879Z,1019.23
2023-05-05T02:32:52.977Z,1019.23
2023-05-05T02:33:25.694Z,1019.23
2023-05-05T02:33:56.940Z,1019.23
2023-05-05T02:34:30.530Z,1019.23
2023-05-05T02:35:01.217Z,1019.13
2023-05-05T02:35:33.664Z,1019.13
2023-05-05T02:36:04.904Z,1019.44
2023-05-05T02:36:37.856Z,1019.44
2023-05-05T02:37:08.851Z,1019.44
2023-05-05T02:37:42.076Z,1019.44
2023-05-05T02:38:12.894Z,1019.23
2023-05-05T02:38:45.770Z,1019.23
2023-05-05T02:39:16.903Z,1019.44
2023-05-05T02:39:49.850Z,1019.44
2023-05-05T02:40:21.325Z,1019.34
2023-05-05T02:40:53.883Z,1019.34
2023-05-05T02:41:24.865Z,1019.54
2023-05-05T02:41:57.779Z,1019.44
2023-05-05T02:42:28.798Z,1019.44
2023-05-05T02:43:02.017Z,1019.34
2023-05-05T02:43:32.901Z,1019.34
2023-05-05T02:44:05.735Z,1019.54
2023-05-05T02:44:36.911Z,1019.54
2023-05-05T02:45:11.388Z,1019.44
2023-05-05T02:45:41.118Z,1019.44
2023-05-05T02:46:13.726Z,1019.44
2023-05-05T02:46:44.974Z,1019.44
2023-05-05T02:47:17.923Z,1019.54
2023-05-05T02:47:48.996Z,1019.54
2023-05-05T02:48:21.749Z,1019.13
2023-05-05T02:48:52.976Z,1019.13
2023-05-05T02:49:25.920Z,1019.54
2023-05-05T02:49:56.891Z,1019.34
2023-05-05T02:50:13.346Z,1019.34
2023-05-05T02:50:44.875Z,1019.54
2023-05-05T02:51:16.932Z,1019.23
2023-05-05T02:51:48.915Z,1019.23
2023-05-05T02:52:20.882Z,1019.13
2023-05-05T02:52:53.866Z,1019.13
2023-05-05T02:53:24.904Z,1019.54
2023-05-05T02:53:57.755Z,1019.34
2023-05-05T02:54:28.929Z,1019.34
2023-05-05T02:55:02.398Z,1019.23
2023-05-05T02:55:32.988Z,1019.23
2023-05-05T02:56:05.714Z,1019.44
2023-05-05T02:56:36.853Z,1019.44
2023-05-05T02:57:09.899Z,1019.34
2023-05-05T02:57:40.924Z,1019.34
2023-05-05T02:58:13.573Z,1019.34
2023-05-05T02:58:44.932Z,1019.34
2023-05-05T02:59:17.807Z,1019.03
2023-05-05T02:59:49.048Z,1019.03
2023-05-05T03:00:22.870Z,1019.44
2023-05-05T03:00:53.048Z,1019.44
2023-05-05T03:01:25.839Z,1019.23
2023-05-05T03:01:57.024Z,1019.23
2023-05-05T03:02:29.747Z,1019.23
2023-05-05T03:03:01.134Z,1019.23
2023-05-05T03:03:33.634Z,1019.23
2023-05-05T03:04:04.849Z,1019.23
2023-05-05T03:04:37.739Z,1019.23
2023-05-05T03:05:09.058Z,1019.13
2023-05-05T03:05:41.667Z,1019.13
2023-05-05T03:06:12.766Z,1019.34
2023-05-05T03:06:45.757Z,1019.34
2023-05-05T03:07:16.774Z,1019.23
2023-05-05T03:07:49.713Z,1019.23
2023-05-05T03:08:21.042Z,1019.34
2023-05-05T03:08:53.818Z,1019.34
2023-05-05T03:09:25.014Z,1019.23
2023-05-05T03:09:57.782Z,1019.13
2023-05-05T03:10:29.353Z,1019.13
2023-05-05T03:11:01.655Z,1019.23
2023-05-05T03:11:32.872Z,1019.23
2023-05-05T03:12:05.795Z,1019.23
2023-05-05T03:12:36.957Z,1019.23
2023-05-05T03:13:09.747Z,1019.23
2023-05-05T03:13:46.713Z,1019.23
2023-05-05T03:14:13.647Z,1019.13
2023-05-05T03:14:44.829Z,1019.13
2023-05-05T03:15:18.695Z,1019.34
2023-05-05T03:15:49.113Z,1019.34
2023-05-05T03:16:21.618Z,1019.23
2023-05-05T03:16:52.884Z,1019.23
2023-05-05T03:17:25.827Z,1019.34
2023-05-05T03:17:57.167Z,1019.13
2023-05-05T03:18:29.617Z,1019.13
2023-05-05T03:19:01.009Z,1019.23
2023-05-05T03:19:33.753Z,1019.23
2023-05-05T03:20:05.262Z,1019.44
2023-05-05T03:20:37.748Z,1019.44
2023-05-05T03:21:09.044Z,1019.34
2023-05-05T03:21:41.880Z,1019.34
2023-05-05T03:22:12.875Z,1019.34
2023-05-05T03:22:45.792Z,1019.34
2023-05-05T03:23:16.996Z,1018.93
2023-05-05T03:23:49.446Z,1018.93
2023-05-05T03:24:20.915Z,1019.34
2023-05-05T03:24:53.737Z,1019.34
2023-05-05T03:25:25.188Z,1019.34
2023-05-05T03:25:57.588Z,1019.23
2023-05-05T03:26:28.835Z,1019.23
2023-05-05T03:27:01.956Z,1019.44
2023-05-05T03:27:32.919Z,1019.44
2023-05-05T03:28:05.694Z,1019.23
2023-05-05T03:28:36.898Z,1019.23
2023-05-05T03:29:09.853Z,1019.13
2023-05-05T03:29:40.822Z,1019.13
2023-05-05T03:30:14.996Z,1019.23
2023-05-05T03:30:45.051Z,1019.23
2023-05-05T03:31:17.551Z,1019.34
2023-05-05T03:31:48.924Z,1019.34
2023-05-05T03:32:22.037Z,1019.34
2023-05-05T03:32:53.033Z,1019.34
2023-05-05T03:33:25.763Z,1019.03
2023-05-05T03:33:56.898Z,1019.13
2023-05-05T03:34:29.726Z,1019.13
2023-05-05T03:35:01.390Z,1019.13
2023-05-05T03:35:33.703Z,1019.13
2023-05-05T03:36:04.940Z,1019.23
2023-05-05T03:36:37.640Z,1019.23
2023-05-05T03:37:08.904Z,1019.03
2023-05-05T03:37:41.705Z,1019.03
2023-05-05T03:38:12.970Z,1019.23
2023-05-05T03:38:45.640Z,1019.23
2023-05-05T03:39:49.784Z,1019.23
2023-05-05T03:40:29.673Z,1019.13
2023-05-05T03:40:53.597Z,1019.13
2023-05-05T03:41:24.984Z,1019.23
2023-05-05T03:41:57.888Z,1019.34
2023-05-05T03:42:28.809Z,1019.34
2023-05-05T03:43:01.820Z,1019.34
2023-05-05T03:43:32.924Z,1019.34
2023-05-05T03:44:05.731Z,1019.34
2023-05-05T03:44:36.892Z,1019.34
2023-05-05T03:45:10.808Z,1019.13
2023-05-05T03:45:41.197Z,1019.13
2023-05-05T03:46:13.634Z,1019.34
2023-05-05T03:46:44.968Z,1019.34
2023-05-05T03:47:18.069Z,1019.34
2023-05-05T03:47:48.916Z,1019.34
2023-05-05T03:48:21.840Z,1019.34
2023-05-05T03:48:52.962Z,1019.34
2023-05-05T03:49:25.856Z,1019.23
2023-05-05T03:49:56.811Z,1019.34
2023-05-05T03:50:13.279Z,1019.34
2023-05-05T03:50:44.871Z,1019.34
2023-05-05T03:51:17.091Z,1019.23
2023-05-05T03:51:49.171Z,1019.23
2023-05-05T03:52:21.114Z,1019.23
2023-05-05T03:52:53.056Z,1019.23
2023-05-05T03:53:25.196Z,1019.34
2023-05-05T03:53:57.190Z,1019.34
2023-05-05T03:54:28.830Z,1019.34
2023-05-05T03:55:02.363Z,1019.23
2023-05-05T03:55:33.177Z,1019.23
2023-05-05T03:56:06.076Z,1019.13
2023-05-05T03:56:37.182Z,1019.13
2023-05-05T03:57:10.085Z,1019.23
2023-05-05T03:57:41.251Z,1019.23
2023-05-05T03:58:13.886Z,1019.23
2023-05-05T03:58:45.024Z,1019.23
2023-05-05T03:59:18.062Z,1019.23
2023-05-05T03:59:49.310Z,1019.23
2023-05-05T04:00:23.475Z,1019.23
2023-05-05T04:00:53.297Z,1019.23
2023-05-05T04:01:26.121Z,1019.34
2023-05-05T04:01:57.103Z,1019.34
2023-05-05T04:02:13.316Z,1019.34
2023-05-05T04:02:45.107Z,1019.34
2023-05-05T04:03:17.283Z,1019.13
2023-05-05T04:03:50.188Z,1019.13
2023-05-05T04:04:21.252Z,1019.23
2023-05-05T04:04:54.058Z,1019.23
2023-05-05T04:05:25.370Z,1019.34
2023-05-05T04:05:58.221Z,1019.23
2023-05-05T04:06:28.980Z,1019.23
2023-05-05T04:07:02.121Z,1019.34
2023-05-05T04:07:33.107Z,1019.34
2023-05-05T04:08:06.080Z,1019.44
2023-05-05T04:08:37.243Z,1019.44
2023-05-05T04:09:10.764Z,1019.23
2023-05-05T04:09:41.162Z,1019.23
2023-05-05T04:10:14.286Z,1019.44
2023-05-05T04:10:45.087Z,1019.44
2023-05-05T04:11:18.114Z,1019.23
2023-05-05T04:11:49.288Z,1019.23
2023-05-05T04:12:22.198Z,1019.23
2023-05-05T04:12:53.242Z,1019.23
2023-05-05T04:13:33.196Z,1019.23
2023-05-05T04:13:57.186Z,1019.54
2023-05-05T04:14:29.161Z,1019.54
2023-05-05T04:15:03.676Z,1019.54
2023-05-05T04:15:33.395Z,1019.54
2023-05-05T04:16:05.915Z,1019.34
2023-05-05T04:16:37.056Z,1019.34
2023-05-05T04:17:11.105Z,1019.34
2023-05-05T04:17:40.964Z,1019.34
2023-05-05T04:18:14.191Z,1019.34
2023-05-05T04:18:45.211Z,1019.34
2023-05-05T04:19:18.066Z,1019.23
2023-05-05T04:19:49.195Z,1019.23
2023-05-05T04:20:24.170Z,1019.23
2023-05-05T04:20:53.278Z,1019.23
2023-05-05T04:21:26.057Z,1019.23
2023-05-05T04:21:57.201Z,1019.34
2023-05-05T04:22:30.224Z,1019.34
2023-05-05T04:23:01.128Z,1019.23
2023-05-05T04:23:33.956Z,1019.23
2023-05-05T04:24:05.183Z,1019.23
2023-05-05T04:24:38.208Z,1019.23
2023-05-05T04:25:09.315Z,1019.34
2023-05-05T04:25:42.891Z,1019.34
2023-05-05T04:26:13.232Z,1019.23
2023-05-05T04:26:46.163Z,1019.23
2023-05-05T04:27:17.088Z,1019.23
2023-05-05T04:27:50.084Z,1019.23
2023-05-05T04:28:22.195Z,1019.34
2023-05-05T04:28:54.081Z,1019.34
2023-05-05T04:29:25.164Z,1019.44
2023-05-05T04:29:58.046Z,1019.44
2023-05-05T04:30:30.344Z,1019.44
2023-05-05T04:31:02.278Z,1019.34
2023-05-05T04:31:33.240Z,1019.34
2023-05-05T04:32:06.086Z,1019.13
2023-05-05T04:32:37.111Z,1019.13
2023-05-05T04:33:10.135Z,1019.23
2023-05-05T04:33:41.175Z,1019.23
2023-05-05T04:34:14.092Z,1019.34
2023-05-05T04:34:45.208Z,1019.34
2023-05-05T04:35:18.486Z,1019.13
2023-05-05T04:35:49.068Z,1019.13
2023-05-05T04:36:22.309Z,1019.34
2023-05-05T04:36:53.202Z,1019.34
2023-05-05T04:37:26.132Z,1019.34
2023-05-05T04:37:57.068Z,1019.44
2023-05-05T04:38:30.099Z,1019.44
2023-05-05T04:39:01.349Z,1019.34
2023-05-05T04:39:33.908Z,1019.34
2023-05-05T04:40:05.339Z,1019.44
2023-05-05T04:40:37.996Z,1019.44
2023-05-05T04:41:09.180Z,1019.34
2023-05-05T04:41:42.173Z,1019.34
2023-05-05T04:42:13.219Z,1019.34
2023-05-05T04:42:46.331Z,1019.34
2023-05-05T04:43:17.156Z,1019.34
2023-05-05T04:43:50.115Z,1019.34
2023-05-05T04:44:21.156Z,1019.34
2023-05-05T04:44:54.336Z,1019.34
2023-05-05T04:45:26.136Z,1019.34
2023-05-05T04:45:58.324Z,1019.44
2023-05-05T04:46:29.246Z,1019.44
2023-05-05T04:47:02.133Z,1019.23
2023-05-05T04:47:33.141Z,1019.23
2023-05-05T04:48:06.237Z,1019.54
2023-05-05T04:48:37.201Z,1019.54
2023-05-05T04:49:09.895Z,1019.54
2023-05-05T04:49:41.112Z,1019.54
2023-05-05T04:50:14.386Z,1019.44
2023-05-05T04:50:45.217Z,1019.44
2023-05-05T04:51:18.061Z,1019.34
2023-05-05T04:51:49.263Z,1019.34
2023-05-05T04:52:22.434Z,1019.44
2023-05-05T04:52:53.160Z,1019.44
2023-05-05T04:53:26.233Z,1019.23
2023-05-05T04:53:57.231Z,1019.44
2023-05-05T04:54:29.948Z,1019.44
2023-05-05T04:55:01.505Z,1019.44
2023-05-05T04:55:34.016Z,1019.44
2023-05-05T04:56:05.287Z,1019.44
2023-05-05T04:56:38.065Z,1019.44
2023-05-05T04:57:09.293Z,1019.54
2023-05-05T04:57:42.194Z,1019.54
2023-05-05T04:58:13.071Z,1019.54
2023-05-05T04:58:45.860Z,1019.54
2023-05-05T04:59:17.317Z,1019.74
2023-05-05T04:59:50.181Z,1019.74
2023-05-05T05:00:22.207Z,1019.64
2023-05-05T05:00:54.926Z,1019.64
2023-05-05T05:01:25.311Z,1019.64
2023-05-05T05:01:57.994Z,1019.54
2023-05-05T05:02:29.258Z,1019.54
2023-05-05T05:03:02.091Z,1019.54
2023-05-05T05:03:33.132Z,1019.54
2023-05-05T05:04:06.057Z,1019.81
2023-05-05T05:04:37.168Z,1019.81
2023-05-05T05:05:11.412Z,1019.54
2023-05-05T05:05:41.140Z,1019.54
2023-05-05T05:06:14.042Z,1019.64
2023-05-05T05:06:45.218Z,1019.64
2023-05-05T05:07:18.040Z,1019.74
2023-05-05T05:07:49.086Z,1019.74
2023-05-05T05:08:22.028Z,1019.81
2023-05-05T05:08:53.324Z,1019.81
2023-05-05T05:09:26.063Z,1019.74
2023-05-05T05:09:57.192Z,1019.64
2023-05-05T05:10:30.320Z,1019.64
2023-05-05T05:11:01.184Z,1019.81
2023-05-05T05:11:33.992Z,1019.81
2023-05-05T05:12:05.117Z,1019.81
2023-05-05T05:12:39.084Z,1019.81
2023-05-05T05:13:11.966Z,1019.91
2023-05-05T05:13:42.080Z,1019.91
2023-05-05T05:14:13.102Z,1019.81
2023-05-05T05:14:46.055Z,1019.81
2023-05-05T05:15:18.213Z,1019.54
2023-05-05T05:15:50.301Z,1019.54
2023-05-05T05:16:21.312Z,1019.74
2023-05-05T05:16:54.069Z,1019.74
2023-05-05T05:17:25.210Z,1019.81
2023-05-05T05:17:58.267Z,1020.01
2023-05-05T05:18:29.273Z,1020.01
2023-05-05T05:19:02.103Z,1019.74
2023-05-05T05:19:33.180Z,1019.74
2023-05-05T05:20:06.408Z,1019.74
2023-05-05T05:20:37.179Z,1019.74
2023-05-05T05:21:10.088Z,1019.74
2023-05-05T05:21:41.269Z,1019.74
2023-05-05T05:22:14.221Z,1019.81
2023-05-05T05:22:45.207Z,1019.81
2023-05-05T05:23:18.037Z,1019.91
2023-05-05T05:23:49.227Z,1019.91
2023-05-05T05:24:22.163Z,1019.74
2023-05-05T05:24:53.215Z,1019.74
2023-05-05T05:25:26.604Z,1019.81
2023-05-05T05:25:57.137Z,1019.81
2023-05-05T05:26:29.977Z,1019.81
2023-05-05T05:27:01.612Z,1019.81
2023-05-05T05:27:34.437Z,1019.81
2023-05-05T05:28:38.009Z,1019.91
2023-05-05T05:29:09.261Z,1019.81
2023-05-05T05:29:42.090Z,1019.81
2023-05-05T05:30:14.297Z,1019.64
2023-05-05T05:30:46.282Z,1019.64
2023-05-05T05:31:17.146Z,1019.74
2023-05-05T05:31:50.087Z,1019.74
2023-05-05T05:32:21.225Z,1019.81
2023-05-05T05:32:54.333Z,1019.81
2023-05-05T05:33:25.118Z,1019.81
2023-05-05T05:33:58.143Z,1019.74
2023-05-05T05:34:29.301Z,1019.74
2023-05-05T05:35:02.402Z,1019.91
2023-05-05T05:35:33.297Z,1019.91
2023-05-05T05:36:06.217Z,1019.81
2023-05-05T05:36:37.148Z,1019.81
2023-05-05T05:37:10.233Z,1019.74
2023-05-05T05:37:41.251Z,1019.74
2023-05-05T05:38:13.953Z,1019.81
2023-05-05T05:38:45.154Z,1019.81
2023-05-05T05:39:18.077Z,1019.74
2023-05-05T05:39:49.332Z,1019.74
2023-05-05T05:40:22.294Z,1019.64
2023-05-05T05:40:53.321Z,1019.64
2023-05-05T05:41:25.956Z,1019.54
2023-05-05T05:41:57.102Z,1019.64
2023-05-05T05:42:31.348Z,1019.64
2023-05-05T05:43:01.386Z,1019.81
2023-05-05T05:43:33.925Z,1019.81
2023-05-05T05:44:05.185Z,1019.64
2023-05-05T05:44:38.589Z,1019.64
2023-05-05T05:45:10.607Z,1019.64
2023-05-05T05:45:42.519Z,1019.64
2023-05-05T05:46:13.559Z,1019.64
2023-05-05T05:46:46.416Z,1019.64
2023-05-05T05:47:17.527Z,1019.64
2023-05-05T05:47:50.542Z,1019.64
2023-05-05T05:48:21.636Z,1019.81
2023-05-05T05:48:54.354Z,1019.81
2023-05-05T05:49:25.657Z,1019.74
2023-05-05T05:49:58.535Z,1019.91
2023-05-05T05:50:29.838Z,1019.91
2023-05-05T05:51:02.586Z,1019.64
2023-05-05T05:51:33.598Z,1019.64
2023-05-05T05:52:06.692Z,1019.64
2023-05-05T05:52:37.564Z,1019.64
2023-05-05T05:53:10.486Z,1019.74
2023-05-05T05:53:41.362Z,1019.74
2023-05-05T05:54:14.382Z,1019.81
2023-05-05T05:54:45.573Z,1019.81
2023-05-05T05:55:18.631Z,1019.81
2023-05-05T05:55:49.133Z,1019.81
2023-05-05T05:56:22.197Z,1019.81
2023-05-05T05:56:53.638Z,1019.81
2023-05-05T05:57:26.484Z,1019.81
2023-05-05T05:57:57.507Z,1019.74
2023-05-05T05:58:30.530Z,1019.74
2023-05-05T05:59:01.439Z,1019.91
2023-05-05T05:59:34.316Z,1019.91
2023-05-05T06:00:07.360Z,1020.01
2023-05-05T06:00:39.563Z,1020.01
2023-05-05T06:01:09.459Z,1019.54
2023-05-05T06:01:42.632Z,1019.54
2023-05-05T06:02:13.843Z,1020.01
2023-05-05T06:02:46.421Z,1020.01
2023-05-05T06:03:17.697Z,1019.81
2023-05-05T06:03:50.500Z,1019.81
2023-05-05T06:04:21.331Z,1019.81
2023-05-05T06:04:54.491Z,1019.81
2023-05-05T06:05:25.933Z,1019.91
2023-05-05T06:05:58.342Z,1019.81
2023-05-05T06:06:29.548Z,1019.81
2023-05-05T06:07:02.599Z,1019.91
2023-05-05T06:07:33.445Z,1019.91
2023-05-05T06:08:06.240Z,1019.81
2023-05-05T06:08:37.576Z,1019.81
2023-05-05T06:09:10.214Z,1020.01
2023-05-05T06:09:41.098Z,1020.01
2023-05-05T06:10:25.747Z,1019.91
2023-05-05T06:10:45.485Z,1019.91
2023-05-05T06:11:18.104Z,1019.81
2023-05-05T06:11:49.485Z,1019.81
2023-05-05T06:12:23.445Z,1019.74
2023-05-05T06:12:53.735Z,1019.74
2023-05-05T06:13:26.327Z,1019.64
2023-05-05T06:13:57.556Z,1019.81
2023-05-05T06:14:31.399Z,1019.81
2023-05-05T06:15:02.919Z,1019.91
2023-05-05T06:15:34.481Z,1019.91
2023-05-05T06:16:05.617Z,1020.01
2023-05-05T06:16:39.055Z,1020.01
2023-05-05T06:17:09.481Z,1019.91
2023-05-05T06:17:42.582Z,1019.91
2023-05-05T06:18:13.628Z,1019.81
2023-05-05T06:18:47.410Z,1019.81
2023-05-05T06:19:17.532Z,1019.81
2023-05-05T06:19:50.391Z,1019.81
2023-05-05T06:20:21.860Z,1019.74
2023-05-05T06:20:54.335Z,1019.74
2023-05-05T06:21:25.656Z,1019.91
2023-05-05T06:21:59.282Z,1019.91
2023-05-05T06:22:29.463Z,1019.91
2023-05-05T06:23:02.647Z,1019.91
2023-05-05T06:23:33.657Z,1019.91
2023-05-05T06:24:06.318Z,1019.91
2023-05-05T06:24:37.488Z,1019.91
2023-05-05T06:25:11.502Z,1019.74
2023-05-05T06:25:41.667Z,1019.74
2023-05-05T06:26:14.237Z,1019.74
2023-05-05T06:26:45.603Z,1019.74